Wakatake Maru — JL6603 — position and weather

sailwx.info

Track history (hours):
 
Tides and Currents Weather Stations Pressure Air Temp Water Temp Dewpoint Dewpoint Depression Visibility Wind Speed Wind Dir Waves Ship Positions

Wakatake Maru

Last reported at 2018-Feb-19 20:38 UTC. Time now 2018-Feb-20 17:14 UTC.
Position N 33°38' E 130°06'.

Length 73 m; draft 4 m.

Type: Cargo ship. MMSI: 431501662.

Date/timePositionNaut miles runAvg speedWind from/ knotsBaromVisibWave heightAir tempDewpointWater temp
2018-Feb-19 20:38N 33°38' E 130°06'212.6
2018-Feb-19 20:26N 33°40' E 130°09'612.6
2018-Feb-19 20:00N 33°44' E 130°13'612.5
2018-Feb-19 19:30N 33°49' E 130°18'612.3
2018-Feb-19 19:00N 33°54' E 130°22'611.6
2018-Feb-19 18:30N 33°56' E 130°28'611.9
2018-Feb-19 18:00N 33°57' E 130°35'612.4
2018-Feb-19 17:30N 33°58' E 130°43'510.0
2018-Feb-19 17:00N 33°58' E 130°49'612.0
2018-Feb-19 16:31N 33°55' E 130°55'713.0
2018-Feb-19 16:00N 33°59' E 131°01'612.6
2018-Feb-19 15:31N 33°56' E 131°07'612.3
2018-Feb-19 15:01N 33°52' E 131°13'612.5
2018-Feb-19 14:30N 33°51' E 131°21'612.6
2018-Feb-19 13:59N 33°50' E 131°29'612.6
2018-Feb-19 13:29N 33°49' E 131°36'1812.8
2018-Feb-19 12:03N 33°46' E 131°58'211.9
2018-Feb-19 11:54N 33°46' E 132°00'612.2
2018-Feb-19 11:23N 33°48' E 132°07'1711.7
2018-Feb-19 09:55N 33°53' E 132°27'612.7
2018-Feb-19 09:26N 33°57' E 132°33'513.0
2018-Feb-19 09:00N 34°01' E 132°37'90 5.1
2018-Feb-18 15:19N 34°22' E 134°23'411.7
2018-Feb-18 14:59N 34°20' E 134°27'612.1
2018-Feb-18 14:30N 34°17' E 134°33'611.5
2018-Feb-18 13:58N 34°14' E 134°39'612.8
2018-Feb-18 13:29N 34°09' E 134°44'612.8
2018-Feb-18 13:00N 34°05' E 134°49'612.8
2018-Feb-18 12:30N 33°60' E 134°54'712.9
2018-Feb-18 12:00N 33°55' E 134°59'17310.0
2018-Feb-17 18:48N 34°34' E 138°23'3 8.1
2018-Feb-17 18:24N 34°34' E 138°27'5 8.3
2018-Feb-17 17:48N 34°35' E 138°33'5 7.7
2018-Feb-17 17:09N 34°35' E 138°39'1 8.1
2018-Feb-17 17:00N 34°35' E 138°40'11 8.1
2018-Feb-17 15:35N 34°36' E 138°54'2 8.0
2018-Feb-17 15:23N 34°36' E 138°56'5 9.6
2018-Feb-17 14:52N 34°39' E 139°01'410.2
2018-Feb-17 14:27N 34°42' E 139°05'610.0
2018-Feb-17 13:54N 34°46' E 139°10'4 9.0
2018-Feb-17 13:30N 34°47' E 139°14'38 9.9
2018-Feb-17 09:42N 34°54' E 139°59'3 9.4
2018-Feb-17 09:23N 34°56' E 140°02'4 9.7
2018-Feb-17 08:59N 34°58' E 140°05'5 0.1
2018-Feb-15 15:06N 35°01' E 140°11'510.8
2018-Feb-15 14:41N 34°59' E 140°06'410.6
2018-Feb-15 14:21N 34°57' E 140°03'17 7.4
2018-Feb-15 12:06N 35°04' E 139°44'112.0
2018-Feb-15 12:00N 35°05' E 139°45'612.1
2018-Feb-15 11:29N 35°11' E 139°46'612.6
2018-Feb-15 11:00N 35°17' E 139°45'612.6
2018-Feb-15 10:30N 35°23' E 139°42'611.8
2018-Feb-15 10:00N 35°29' E 139°42'2 4.4
2018-Feb-15 09:30N 35°30' E 139°44'0 0.0
2018-Feb-15 09:00N 35°30' E 139°44'0 0.0
2018-Feb-15 08:30N 35°30' E 139°44'0 0.0
2018-Feb-14 23:06N 35°30' E 139°44'0 0.2
2018-Feb-14 23:00N 35°30' E 139°44'3 6.1
2018-Feb-14 22:31N 35°27' E 139°43'5 9.7
2018-Feb-14 22:01N 35°23' E 139°40'0 0.2
2018-Feb-14 21:31N 35°23' E 139°41'0 0.0
2018-Feb-14 06:04N 35°23' E 139°40'0 0.9
2018-Feb-14 06:00N 35°23' E 139°40'0 0.0
2018-Feb-13 11:13N 35°23' E 139°40'0 0.0
2018-Feb-13 11:00N 35°23' E 139°40'0 0.0
2018-Feb-13 10:30N 35°23' E 139°40'0 0.0
2018-Feb-13 10:00N 35°23' E 139°40'0 0.1
2018-Feb-13 09:30N 35°23' E 139°40'0 0.0
2018-Feb-13 09:00N 35°23' E 139°40'0 0.0
2018-Feb-13 08:30N 35°23' E 139°40'0 0.0
2018-Feb-13 08:00N 35°23' E 139°40'0 0.0
2018-Feb-13 07:30N 35°23' E 139°40'0 0.0
2018-Feb-13 07:01N 35°23' E 139°40'0 0.1
2018-Feb-13 06:30N 35°23' E 139°40'0 0.0
2018-Feb-13 06:00N 35°23' E 139°40'2 3.9
2018-Feb-13 05:30N 35°24' E 139°42'510.4
2018-Feb-13 05:00N 35°29' E 139°43'3 5.4
2018-Feb-13 04:30N 35°30' E 139°46'0 0.0
2018-Feb-13 03:54N 35°30' E 139°46'0 0.0
2018-Feb-13 03:30N 35°30' E 139°46'0 0.0
2018-Feb-13 03:00N 35°30' E 139°46'0 0.0
2018-Feb-13 02:28N 35°30' E 139°46'0 0.0
2018-Feb-13 02:00N 35°30' E 139°46'0 0.0
2018-Feb-13 01:29N 35°30' E 139°46'0 0.0
2018-Feb-13 01:00N 35°30' E 139°46'0 0.0
2018-Feb-13 00:30N 35°30' E 139°46'0 0.0
2018-Feb-13 00:00N 35°30' E 139°46'0 0.0
2018-Feb-12 23:30N 35°30' E 139°46'0 0.0
2018-Feb-12 23:00N 35°30' E 139°46'2 3.6
2018-Feb-12 22:30N 35°29' E 139°48'611.7
2018-Feb-12 22:00N 35°24' E 139°46'611.2
2018-Feb-12 21:30N 35°18' E 139°45'510.9
2018-Feb-12 21:00N 35°13' E 139°47'611.5
2018-Feb-12 20:30N 35°07' E 139°46'17 5.6
2018-Feb-12 17:28N 34°56' E 140°02'  
2018-Feb-10 09:05N 41°25' E 141°32'712.7
2018-Feb-10 08:32N 41°32' E 141°29'112.5
2018-Feb-10 08:27N 41°33' E 141°28'711.6
2018-Feb-10 07:52N 41°39' E 141°25'  
Track history (hours):
 
Tides and Currents Weather Stations Pressure Air Temp Water Temp Dewpoint Dewpoint Depression Visibility Wind Speed Wind Dir Waves Ship Positions

Wakatake Maru

Last reported at 2018-Feb-19 20:38 UTC. Time now 2018-Feb-20 17:14 UTC.
Position N 33°38' E 130°06'.

Length 73 m; draft 4 m.

Type: Cargo ship. MMSI: 431501662.

Date/timePositionNaut miles runAvg speedWind from/ knotsBaromVisibWave heightAir tempDewpointWater temp
2018-Feb-19 20:38N 33°38' E 130°06'212.6
2018-Feb-19 20:26N 33°40' E 130°09'612.6
2018-Feb-19 20:00N 33°44' E 130°13'612.5
2018-Feb-19 19:30N 33°49' E 130°18'612.3
2018-Feb-19 19:00N 33°54' E 130°22'611.6
2018-Feb-19 18:30N 33°56' E 130°28'611.9
2018-Feb-19 18:00N 33°57' E 130°35'612.4
2018-Feb-19 17:30N 33°58' E 130°43'510.0
2018-Feb-19 17:00N 33°58' E 130°49'612.0
2018-Feb-19 16:31N 33°55' E 130°55'713.0
2018-Feb-19 16:00N 33°59' E 131°01'612.6
2018-Feb-19 15:31N 33°56' E 131°07'612.3
2018-Feb-19 15:01N 33°52' E 131°13'612.5
2018-Feb-19 14:30N 33°51' E 131°21'612.6
2018-Feb-19 13:59N 33°50' E 131°29'612.6
2018-Feb-19 13:29N 33°49' E 131°36'1812.8
2018-Feb-19 12:03N 33°46' E 131°58'211.9
2018-Feb-19 11:54N 33°46' E 132°00'612.2
2018-Feb-19 11:23N 33°48' E 132°07'1711.7
2018-Feb-19 09:55N 33°53' E 132°27'612.7
2018-Feb-19 09:26N 33°57' E 132°33'513.0
2018-Feb-19 09:00N 34°01' E 132°37'90 5.1
2018-Feb-18 15:19N 34°22' E 134°23'411.7
2018-Feb-18 14:59N 34°20' E 134°27'612.1
2018-Feb-18 14:30N 34°17' E 134°33'611.5
2018-Feb-18 13:58N 34°14' E 134°39'612.8
2018-Feb-18 13:29N 34°09' E 134°44'612.8
2018-Feb-18 13:00N 34°05' E 134°49'612.8
2018-Feb-18 12:30N 33°60' E 134°54'712.9
2018-Feb-18 12:00N 33°55' E 134°59'17310.0
2018-Feb-17 18:48N 34°34' E 138°23'3 8.1
2018-Feb-17 18:24N 34°34' E 138°27'5 8.3
2018-Feb-17 17:48N 34°35' E 138°33'5 7.7
2018-Feb-17 17:09N 34°35' E 138°39'1 8.1
2018-Feb-17 17:00N 34°35' E 138°40'11 8.1
2018-Feb-17 15:35N 34°36' E 138°54'2 8.0
2018-Feb-17 15:23N 34°36' E 138°56'5 9.6
2018-Feb-17 14:52N 34°39' E 139°01'410.2
2018-Feb-17 14:27N 34°42' E 139°05'610.0
2018-Feb-17 13:54N 34°46' E 139°10'4 9.0
2018-Feb-17 13:30N 34°47' E 139°14'38 9.9
2018-Feb-17 09:42N 34°54' E 139°59'3 9.4
2018-Feb-17 09:23N 34°56' E 140°02'4 9.7
2018-Feb-17 08:59N 34°58' E 140°05'5 0.1
2018-Feb-15 15:06N 35°01' E 140°11'510.8
2018-Feb-15 14:41N 34°59' E 140°06'410.6
2018-Feb-15 14:21N 34°57' E 140°03'17 7.4
2018-Feb-15 12:06N 35°04' E 139°44'112.0
2018-Feb-15 12:00N 35°05' E 139°45'612.1
2018-Feb-15 11:29N 35°11' E 139°46'612.6
2018-Feb-15 11:00N 35°17' E 139°45'612.6
2018-Feb-15 10:30N 35°23' E 139°42'611.8
2018-Feb-15 10:00N 35°29' E 139°42'2 4.4
2018-Feb-15 09:30N 35°30' E 139°44'0 0.0
2018-Feb-15 09:00N 35°30' E 139°44'0 0.0
2018-Feb-15 08:30N 35°30' E 139°44'0 0.0
2018-Feb-14 23:06N 35°30' E 139°44'0 0.2
2018-Feb-14 23:00N 35°30' E 139°44'3 6.1
2018-Feb-14 22:31N 35°27' E 139°43'5 9.7
2018-Feb-14 22:01N 35°23' E 139°40'0 0.2
2018-Feb-14 21:31N 35°23' E 139°41'0 0.0
2018-Feb-14 06:04N 35°23' E 139°40'0 0.9
2018-Feb-14 06:00N 35°23' E 139°40'0 0.0
2018-Feb-13 11:13N 35°23' E 139°40'0 0.0
2018-Feb-13 11:00N 35°23' E 139°40'0 0.0
2018-Feb-13 10:30N 35°23' E 139°40'0 0.0
2018-Feb-13 10:00N 35°23' E 139°40'0 0.1
2018-Feb-13 09:30N 35°23' E 139°40'0 0.0
2018-Feb-13 09:00N 35°23' E 139°40'0 0.0
2018-Feb-13 08:30N 35°23' E 139°40'0 0.0
2018-Feb-13 08:00N 35°23' E 139°40'0 0.0
2018-Feb-13 07:30N 35°23' E 139°40'0 0.0
2018-Feb-13 07:01N 35°23' E 139°40'0 0.1
2018-Feb-13 06:30N 35°23' E 139°40'0 0.0
2018-Feb-13 06:00N 35°23' E 139°40'2 3.9
2018-Feb-13 05:30N 35°24' E 139°42'510.4
2018-Feb-13 05:00N 35°29' E 139°43'3 5.4
2018-Feb-13 04:30N 35°30' E 139°46'0 0.0
2018-Feb-13 03:54N 35°30' E 139°46'0 0.0
2018-Feb-13 03:30N 35°30' E 139°46'0 0.0
2018-Feb-13 03:00N 35°30' E 139°46'0 0.0
2018-Feb-13 02:28N 35°30' E 139°46'0 0.0
2018-Feb-13 02:00N 35°30' E 139°46'0 0.0
2018-Feb-13 01:29N 35°30' E 139°46'0 0.0
2018-Feb-13 01:00N 35°30' E 139°46'0 0.0
2018-Feb-13 00:30N 35°30' E 139°46'0 0.0
2018-Feb-13 00:00N 35°30' E 139°46'0 0.0
2018-Feb-12 23:30N 35°30' E 139°46'0 0.0
2018-Feb-12 23:00N 35°30' E 139°46'2 3.6
2018-Feb-12 22:30N 35°29' E 139°48'611.7
2018-Feb-12 22:00N 35°24' E 139°46'611.2
2018-Feb-12 21:30N 35°18' E 139°45'510.9
2018-Feb-12 21:00N 35°13' E 139°47'611.5
2018-Feb-12 20:30N 35°07' E 139°46'17 5.6
2018-Feb-12 17:28N 34°56' E 140°02'  
2018-Feb-10 09:05N 41°25' E 141°32'712.7
2018-Feb-10 08:32N 41°32' E 141°29'112.5
2018-Feb-10 08:27N 41°33' E 141°28'711.6
2018-Feb-10 07:52N 41°39' E 141°25'  

Dump ship's entire track history